createdAt,value
2022-08-23T00:01:51.910Z,3.25
2022-08-23T00:04:28.446Z,4.95
2022-08-23T00:07:05.556Z,3.58
2022-08-23T00:09:36.431Z,1.65
2022-08-23T00:12:11.764Z,5.00
2022-08-23T00:17:33.818Z,2.50
2022-08-23T00:20:04.639Z,4.60
2022-08-23T00:22:33.974Z,4.72
2022-08-23T00:25:04.776Z,2.72
2022-08-23T00:27:34.539Z,4.40
2022-08-23T00:30:04.306Z,1.80
2022-08-23T00:32:35.995Z,4.25
2022-08-23T00:35:09.445Z,2.13
2022-08-23T00:37:39.404Z,2.63
2022-08-23T00:40:13.622Z,2.40
2022-08-23T00:43:03.360Z,4.97
2022-08-23T00:46:00.475Z,4.97
2022-08-23T00:48:29.604Z,4.60
2022-08-23T00:51:05.901Z,2.35
2022-08-23T00:53:38.550Z,5.85
2022-08-23T00:56:12.283Z,9.65
2022-08-23T00:58:42.921Z,4.05
2022-08-23T01:01:12.259Z,3.25
2022-08-23T01:03:57.081Z,4.10
2022-08-23T01:06:40.644Z,1.77
2022-08-23T01:09:13.265Z,2.55
2022-08-23T01:11:51.223Z,3.72
2022-08-23T01:14:28.798Z,3.45
2022-08-23T01:17:05.586Z,4.50
2022-08-23T01:19:38.680Z,3.58
2022-08-23T01:22:14.424Z,4.65
2022-08-23T01:25:07.268Z,7.68
2022-08-23T01:27:39.590Z,4.15
2022-08-23T01:30:11.865Z,5.38
2022-08-23T01:32:47.059Z,2.33
2022-08-23T01:35:17.204Z,2.03
2022-08-23T01:37:47.861Z,5.43
2022-08-23T01:40:18.516Z,6.35
2022-08-23T01:42:49.568Z,4.45
2022-08-23T01:45:19.350Z,5.47
2022-08-23T01:47:48.690Z,6.25
2022-08-23T01:50:18.967Z,5.00
2022-08-23T01:52:48.268Z,6.10
2022-08-23T01:55:22.794Z,3.38
2022-08-23T01:57:56.947Z,7.20
2022-08-23T02:00:30.350Z,4.07
2022-08-23T02:03:00.079Z,3.65
2022-08-23T02:05:30.834Z,5.70
2022-08-23T02:08:21.196Z,6.13
2022-08-23T02:10:54.280Z,3.38
2022-08-23T02:13:23.956Z,6.07
2022-08-23T02:15:55.206Z,3.55
2022-08-23T02:18:25.901Z,7.07
2022-08-23T02:20:55.867Z,9.82
2022-08-23T02:23:25.425Z,5.85
2022-08-23T02:25:57.803Z,4.88
2022-08-23T02:28:27.669Z,5.53
2022-08-23T02:30:56.741Z,6.35
2022-08-23T02:33:27.547Z,6.30
2022-08-23T02:35:57.033Z,6.95
2022-08-23T02:38:26.235Z,4.82
2022-08-23T02:41:01.003Z,8.18
2022-08-23T02:43:32.166Z,5.82
2022-08-23T02:46:01.415Z,8.00
2022-08-23T02:48:32.699Z,9.55
2022-08-23T02:53:37.157Z,7.18
2022-08-23T02:56:21.623Z,9.93
2022-08-23T02:58:54.399Z,6.18
2022-08-23T03:01:28.733Z,5.60
2022-08-23T03:04:02.921Z,7.95
2022-08-23T03:06:32.980Z,11.02
2022-08-23T03:09:02.738Z,4.65
2022-08-23T03:16:28.242Z,5.88
2022-08-23T03:18:57.496Z,5.30
2022-08-23T03:21:26.898Z,10.43
2022-08-23T03:23:57.323Z,9.13
2022-08-23T03:26:27.144Z,10.27
2022-08-23T03:28:57.472Z,5.45
2022-08-23T03:31:32.740Z,3.30
2022-08-23T03:34:08.092Z,6.15
2022-08-23T03:36:38.152Z,5.45
2022-08-23T03:39:08.544Z,7.53
2022-08-23T03:41:37.820Z,6.22
2022-08-23T03:44:07.684Z,11.48
2022-08-23T03:46:42.383Z,8.23
2022-08-23T03:49:12.605Z,12.00
2022-08-23T03:51:47.624Z,7.65
2022-08-23T03:54:17.854Z,11.65
2022-08-23T03:56:55.242Z,8.23
2022-08-23T03:59:25.811Z,11.90
2022-08-23T04:01:56.974Z,6.50
2022-08-23T04:04:26.768Z,8.77
2022-08-23T04:07:20.913Z,12.60
2022-08-23T04:09:55.268Z,9.95
2022-08-23T04:12:27.293Z,17.55
2022-08-23T04:14:56.826Z,14.18
2022-08-23T04:17:32.293Z,8.45
2022-08-23T04:20:03.716Z,11.88
2022-08-23T04:22:35.660Z,9.32
2022-08-23T04:25:05.370Z,10.70
2022-08-23T04:27:54.887Z,7.78
2022-08-23T04:30:24.379Z,10.25
2022-08-23T04:32:57.397Z,15.43
2022-08-23T04:35:27.699Z,10.75
2022-08-23T04:37:57.094Z,10.93
2022-08-23T04:40:45.136Z,8.80
2022-08-23T04:43:16.029Z,9.00
2022-08-23T04:45:45.372Z,9.00
2022-08-23T04:48:27.393Z,7.53
2022-08-23T04:50:57.908Z,8.02
2022-08-23T04:53:29.238Z,11.80
2022-08-23T04:56:24.584Z,13.57
2022-08-23T04:58:55.296Z,9.10
2022-08-23T05:01:25.946Z,6.50
2022-08-23T05:03:58.375Z,6.82
2022-08-23T05:06:29.396Z,14.57
2022-08-23T05:08:59.208Z,5.90
2022-08-23T05:11:29.248Z,5.13
2022-08-23T05:13:58.355Z,8.60
2022-08-23T05:16:27.826Z,7.85
2022-08-23T05:21:35.732Z,12.15
2022-08-23T05:24:05.457Z,6.85
2022-08-23T05:26:35.212Z,5.93
2022-08-23T05:29:05.244Z,6.90
2022-08-23T05:31:40.879Z,6.88
2022-08-23T05:34:11.914Z,7.47
2022-08-23T05:36:48.105Z,8.32
2022-08-23T05:39:35.750Z,6.03
2022-08-23T05:42:09.379Z,9.70
2022-08-23T05:44:39.666Z,9.90
2022-08-23T05:47:12.922Z,6.63
2022-08-23T05:50:06.051Z,8.23
2022-08-23T05:52:38.515Z,7.05
2022-08-23T05:55:08.927Z,8.60
2022-08-23T05:57:57.555Z,8.48
2022-08-23T06:00:40.649Z,8.20
2022-08-23T06:03:11.094Z,10.10
2022-08-23T06:05:43.052Z,4.07
2022-08-23T06:08:13.529Z,9.27
2022-08-23T06:10:42.852Z,8.02
2022-08-23T06:13:24.572Z,9.05
2022-08-23T06:15:53.887Z,6.15
2022-08-23T06:18:24.501Z,6.20
2022-08-23T06:21:06.169Z,6.30
2022-08-23T06:23:46.649Z,7.10
2022-08-23T06:26:18.518Z,9.18
2022-08-23T06:28:51.063Z,5.68
2022-08-23T06:31:36.693Z,5.88
2022-08-23T06:34:10.210Z,4.55
2022-08-23T06:37:02.074Z,9.10
2022-08-23T06:40:09.065Z,9.40
2022-08-23T06:42:59.988Z,6.80
2022-08-23T06:45:41.501Z,8.77
2022-08-23T06:48:22.781Z,8.88
2022-08-23T06:50:52.607Z,9.75
2022-08-23T06:53:56.538Z,7.40
2022-08-23T06:56:55.282Z,7.22
2022-08-23T06:59:31.276Z,8.63
2022-08-23T07:02:32.977Z,7.35
2022-08-23T07:05:21.594Z,9.60
2022-08-23T07:08:13.936Z,6.13
2022-08-23T07:10:44.944Z,3.80
2022-08-23T07:13:18.381Z,4.97
2022-08-23T07:15:50.095Z,9.13
2022-08-23T07:18:21.932Z,8.10
2022-08-23T07:21:49.380Z,5.88
2022-08-23T07:28:44.030Z,6.85
2022-08-23T07:31:15.976Z,5.63
2022-08-23T07:33:47.846Z,4.45
2022-08-23T07:36:24.109Z,8.23
2022-08-23T07:38:54.411Z,7.80
2022-08-23T07:41:25.533Z,4.55
2022-08-23T07:43:56.165Z,6.10
2022-08-23T07:46:26.395Z,5.45
2022-08-23T07:48:58.156Z,6.25
2022-08-23T07:51:36.162Z,6.65
2022-08-23T07:54:08.819Z,5.88
2022-08-23T07:56:45.827Z,10.05
2022-08-23T07:59:51.960Z,8.10
2022-08-23T08:02:40.264Z,8.80
2022-08-23T08:05:21.623Z,8.23
2022-08-23T08:07:52.304Z,10.20
2022-08-23T08:10:21.610Z,10.65
2022-08-23T08:12:51.330Z,6.43
2022-08-23T08:15:24.037Z,9.13
2022-08-23T08:18:01.210Z,12.63
2022-08-23T08:20:51.317Z,7.82
2022-08-23T08:23:39.280Z,6.95
2022-08-23T08:26:37.394Z,11.05
2022-08-23T08:29:07.495Z,10.43
2022-08-23T08:31:39.672Z,13.60
2022-08-23T08:34:10.077Z,10.35
2022-08-23T08:36:42.097Z,7.55
2022-08-23T08:39:20.199Z,9.73
2022-08-23T08:42:05.279Z,11.30
2022-08-23T08:44:42.033Z,11.55
2022-08-23T08:47:19.155Z,12.70
2022-08-23T08:49:54.251Z,8.38
2022-08-23T08:52:27.824Z,11.10
2022-08-23T08:55:10.921Z,12.43
2022-08-23T08:57:44.719Z,14.68
2022-08-23T09:00:16.463Z,11.52
2022-08-23T09:02:48.306Z,11.93
2022-08-23T09:05:22.095Z,13.90
2022-08-23T09:08:05.976Z,10.80
2022-08-23T09:10:54.203Z,13.35
2022-08-23T09:13:53.933Z,12.45
2022-08-23T09:16:40.716Z,10.57
2022-08-23T09:19:11.878Z,12.43
2022-08-23T09:21:48.011Z,10.13
2022-08-23T09:24:17.616Z,13.23
2022-08-23T09:26:59.912Z,14.10
2022-08-23T09:29:31.365Z,17.13
2022-08-23T09:32:03.435Z,8.02
2022-08-23T09:34:43.610Z,13.50
2022-08-23T09:37:19.393Z,11.70
2022-08-23T09:39:51.746Z,12.07
2022-08-23T09:42:30.941Z,14.15
2022-08-23T09:45:01.258Z,18.58
2022-08-23T09:47:39.817Z,14.95
2022-08-23T09:50:33.898Z,12.55
2022-08-23T09:53:08.399Z,15.00
2022-08-23T09:55:42.192Z,10.27
2022-08-23T09:58:23.574Z,16.70
2022-08-23T10:01:13.747Z,10.93
2022-08-23T10:03:46.820Z,14.98
2022-08-23T10:06:34.286Z,11.68
2022-08-23T10:09:08.795Z,16.33
2022-08-23T10:11:45.019Z,11.70
2022-08-23T10:14:17.743Z,18.60
2022-08-23T10:17:03.153Z,13.32
2022-08-23T10:19:41.240Z,12.43
2022-08-23T10:22:23.587Z,10.63
2022-08-23T10:25:16.331Z,10.60
2022-08-23T10:28:13.775Z,11.95
2022-08-23T10:30:59.730Z,18.00
2022-08-23T10:33:43.389Z,16.77
2022-08-23T10:36:19.852Z,12.43
2022-08-23T10:38:57.957Z,17.98
2022-08-23T10:41:50.008Z,13.88
2022-08-23T10:44:27.182Z,13.20
2022-08-23T10:47:15.611Z,11.65
2022-08-23T10:49:49.969Z,13.60
2022-08-23T10:52:24.824Z,14.07
2022-08-23T10:55:08.616Z,9.82
2022-08-23T10:57:42.535Z,12.50
2022-08-23T11:00:17.693Z,11.15
2022-08-23T11:02:56.281Z,16.67
2022-08-23T11:05:38.829Z,12.27
2022-08-23T11:08:32.794Z,11.23
2022-08-23T11:11:05.742Z,17.92
2022-08-23T11:13:37.221Z,15.27
2022-08-23T11:16:15.272Z,14.65
2022-08-23T11:18:49.591Z,13.68
2022-08-23T11:21:46.960Z,15.48
2022-08-23T11:24:51.311Z,13.90
2022-08-23T11:27:38.315Z,17.65
2022-08-23T11:30:50.219Z,9.05
2022-08-23T11:33:32.622Z,9.90
2022-08-23T11:39:09.211Z,16.02
2022-08-23T11:42:04.039Z,14.30
2022-08-23T11:44:48.178Z,10.20
2022-08-23T11:47:29.912Z,16.42
2022-08-23T11:50:25.642Z,13.48
2022-08-23T11:53:26.006Z,12.32
2022-08-23T11:56:12.610Z,13.95
2022-08-23T11:59:08.582Z,9.88
2022-08-23T12:01:41.818Z,9.77
2022-08-23T12:04:28.004Z,11.90
2022-08-23T12:07:03.158Z,13.57
2022-08-23T12:09:57.777Z,12.38
2022-08-23T12:12:37.782Z,9.27
2022-08-23T12:15:12.046Z,8.20
2022-08-23T12:18:16.612Z,13.20
2022-08-23T12:20:48.794Z,15.68
2022-08-23T12:23:22.101Z,11.52
2022-08-23T12:26:04.125Z,9.13
2022-08-23T12:28:46.312Z,6.45
2022-08-23T12:31:30.124Z,8.38
2022-08-23T12:34:23.534Z,9.90
2022-08-23T12:37:05.454Z,11.27
2022-08-23T12:39:41.809Z,8.45
2022-08-23T12:42:15.835Z,11.23
2022-08-23T12:44:46.493Z,8.20
2022-08-23T12:47:18.257Z,12.13
2022-08-23T12:50:01.674Z,11.07
2022-08-23T12:52:34.164Z,12.55
2022-08-23T12:55:03.200Z,11.20
2022-08-23T12:57:36.872Z,10.73
2022-08-23T13:00:21.690Z,11.88
2022-08-23T13:02:58.644Z,13.48
2022-08-23T13:05:40.178Z,13.52
2022-08-23T13:08:16.672Z,12.32
2022-08-23T13:10:47.195Z,13.57
2022-08-23T13:13:20.395Z,9.13
2022-08-23T13:15:53.719Z,16.83
2022-08-23T13:18:28.837Z,10.40
2022-08-23T13:21:34.092Z,10.15
2022-08-23T13:24:37.992Z,16.02
2022-08-23T13:27:34.661Z,10.45
2022-08-23T13:30:23.004Z,15.20
2022-08-23T13:32:54.408Z,13.05
2022-08-23T13:35:36.530Z,14.18
2022-08-23T13:38:21.407Z,10.10
2022-08-23T13:41:00.295Z,14.93
2022-08-23T13:43:34.421Z,13.98
2022-08-23T13:46:17.974Z,15.02
2022-08-23T13:48:56.255Z,15.30
2022-08-23T13:51:32.356Z,16.38
2022-08-23T13:54:06.590Z,11.20
2022-08-23T13:56:39.105Z,12.00
2022-08-23T13:59:20.643Z,14.38
2022-08-23T14:01:49.984Z,12.45
2022-08-23T14:04:18.986Z,10.90
2022-08-23T14:06:49.585Z,11.38
2022-08-23T14:09:20.565Z,11.85
2022-08-23T14:11:55.380Z,15.55
2022-08-23T14:14:24.915Z,11.57
2022-08-23T14:16:54.552Z,10.15
2022-08-23T14:22:13.256Z,10.65
2022-08-23T14:24:45.508Z,10.00
2022-08-23T14:27:15.478Z,10.52
2022-08-23T14:29:44.432Z,14.43
2022-08-23T14:32:13.384Z,13.27
2022-08-23T14:34:42.823Z,11.95
2022-08-23T14:40:02.859Z,17.13
2022-08-23T14:42:38.742Z,10.13
2022-08-23T14:45:11.515Z,11.95
2022-08-23T14:50:14.867Z,15.60
2022-08-23T14:52:47.371Z,14.73
2022-08-23T14:55:21.088Z,13.73
2022-08-23T14:57:53.494Z,16.80
2022-08-23T15:00:23.626Z,13.80
2022-08-23T15:02:53.159Z,19.75
2022-08-23T15:05:22.439Z,11.68
2022-08-23T15:07:51.968Z,12.27
2022-08-23T15:13:21.598Z,13.75
2022-08-23T15:15:51.748Z,12.60
2022-08-23T15:18:22.059Z,14.10
2022-08-23T15:20:52.414Z,13.23
2022-08-23T15:23:22.274Z,17.40
2022-08-23T15:25:53.500Z,18.02
2022-08-23T15:28:24.881Z,15.88
2022-08-23T15:30:54.323Z,14.93
2022-08-23T15:33:26.777Z,18.25
2022-08-23T15:35:58.985Z,16.33
2022-08-23T15:38:29.089Z,16.80
2022-08-23T15:41:00.582Z,18.63
2022-08-23T15:43:33.942Z,15.30
2022-08-23T15:46:10.592Z,14.10
2022-08-23T15:48:46.717Z,18.00
2022-08-23T15:51:17.174Z,15.50
2022-08-23T15:53:47.361Z,13.68
2022-08-23T15:56:21.076Z,17.50
2022-08-23T15:58:50.869Z,18.50
2022-08-23T16:01:24.567Z,10.70
2022-08-23T16:03:54.386Z,21.25
2022-08-23T16:06:24.272Z,17.02
2022-08-23T16:08:54.835Z,12.82
2022-08-23T16:11:25.826Z,16.23
2022-08-23T16:13:55.846Z,13.20
2022-08-23T16:16:27.843Z,17.00
2022-08-23T16:18:58.336Z,12.57
2022-08-23T16:21:30.392Z,14.48
2022-08-23T16:24:00.378Z,16.33
2022-08-23T16:26:35.579Z,13.15
2022-08-23T16:29:09.464Z,15.93
2022-08-23T16:31:40.007Z,21.23
2022-08-23T16:34:12.101Z,14.52
2022-08-23T16:36:44.290Z,20.98
2022-08-23T16:39:14.812Z,15.63
2022-08-23T16:41:45.582Z,19.77
2022-08-23T16:44:14.883Z,21.60
2022-08-23T16:46:44.335Z,20.98
2022-08-23T16:49:16.054Z,24.58
2022-08-23T16:51:46.183Z,12.98
2022-08-23T16:54:15.938Z,16.65
2022-08-23T16:56:47.010Z,16.05
2022-08-23T16:59:16.319Z,14.82
2022-08-23T17:01:48.146Z,18.33
2022-08-23T17:04:18.827Z,24.10
2022-08-23T17:06:48.486Z,18.73
2022-08-23T17:09:17.720Z,21.58
2022-08-23T17:11:48.923Z,12.40
2022-08-23T17:14:17.928Z,24.67
2022-08-23T17:16:47.648Z,15.90
2022-08-23T17:19:16.805Z,15.52
2022-08-23T17:21:45.967Z,16.88
2022-08-23T17:24:15.376Z,10.90
2022-08-23T17:26:44.440Z,16.88
2022-08-23T17:29:14.982Z,20.90
2022-08-23T17:31:44.931Z,18.65
2022-08-23T17:34:14.063Z,15.88
2022-08-23T17:36:47.761Z,18.75
2022-08-23T17:39:21.199Z,15.50
2022-08-23T17:41:50.561Z,12.68
2022-08-23T17:44:21.425Z,19.25
2022-08-23T17:46:51.274Z,17.13
2022-08-23T17:49:22.390Z,22.80
2022-08-23T17:51:51.447Z,22.88
2022-08-23T17:54:20.431Z,19.38
2022-08-23T17:56:51.034Z,15.80
2022-08-23T17:59:22.675Z,14.30
2022-08-23T18:01:52.171Z,25.05
2022-08-23T18:04:21.371Z,22.33
2022-08-23T18:06:50.370Z,18.92
2022-08-23T18:09:19.674Z,21.10
2022-08-23T18:11:48.851Z,19.83
2022-08-23T18:14:18.085Z,17.75
2022-08-23T18:16:48.831Z,16.90
2022-08-23T18:19:17.973Z,21.30
2022-08-23T18:21:49.242Z,23.52
2022-08-23T18:24:19.047Z,21.80
2022-08-23T18:27:06.235Z,27.35
2022-08-23T18:30:11.606Z,18.17
2022-08-23T18:33:47.087Z,15.90
2022-08-23T18:36:36.894Z,26.42
2022-08-23T18:39:06.805Z,28.17
2022-08-23T18:41:36.540Z,21.80
2022-08-23T18:44:06.274Z,22.98
2022-08-23T18:46:35.877Z,24.45
2022-08-23T18:49:06.533Z,21.35
2022-08-23T18:51:37.059Z,19.55
2022-08-23T18:54:07.053Z,22.52
2022-08-23T18:56:37.789Z,25.70
2022-08-23T18:59:07.509Z,25.92
2022-08-23T19:01:39.615Z,23.00
2022-08-23T19:04:10.551Z,20.17
2022-08-23T19:06:41.930Z,24.02
2022-08-23T19:09:12.894Z,24.75
2022-08-23T19:11:43.484Z,23.33
2022-08-23T19:14:14.471Z,15.38
2022-08-23T19:16:48.192Z,13.20
2022-08-23T19:19:19.621Z,21.97
2022-08-23T19:21:50.463Z,18.40
2022-08-23T19:24:22.127Z,22.75
2022-08-23T19:26:54.535Z,18.10
2022-08-23T19:29:24.187Z,20.50
2022-08-23T19:31:53.479Z,29.60
2022-08-23T19:34:24.244Z,15.73
2022-08-23T19:37:00.610Z,23.63
2022-08-23T19:39:32.924Z,19.95
2022-08-23T19:42:07.419Z,23.80
2022-08-23T19:44:39.305Z,20.20
2022-08-23T19:47:09.096Z,18.83
2022-08-23T19:49:48.888Z,17.20
2022-08-23T19:52:19.605Z,15.60
2022-08-23T19:54:49.107Z,23.90
2022-08-23T19:57:18.555Z,17.25
2022-08-23T19:59:47.838Z,18.10
2022-08-23T20:02:16.966Z,18.13
2022-08-23T20:04:46.507Z,20.92
2022-08-23T20:07:15.755Z,20.58
2022-08-23T20:09:46.729Z,20.75
2022-08-23T20:12:18.970Z,17.58
2022-08-23T20:14:49.710Z,17.85
2022-08-23T20:17:19.267Z,15.48
2022-08-23T20:19:48.449Z,20.92
2022-08-23T20:22:35.523Z,22.75
2022-08-23T20:25:07.763Z,15.80
2022-08-23T20:27:39.402Z,18.23
2022-08-23T20:30:09.932Z,20.63
2022-08-23T20:32:40.413Z,21.80
2022-08-23T20:35:11.260Z,22.35
2022-08-23T20:37:42.632Z,27.30
2022-08-23T20:40:14.765Z,15.73
2022-08-23T20:42:43.978Z,14.35
2022-08-23T20:45:13.435Z,19.48
2022-08-23T20:47:42.405Z,20.48
2022-08-23T20:50:12.565Z,19.15
2022-08-23T20:52:41.730Z,16.48
2022-08-23T20:55:13.882Z,20.65
2022-08-23T20:57:43.109Z,20.23
2022-08-23T21:00:14.066Z,20.35
2022-08-23T21:02:43.142Z,15.93
2022-08-23T21:05:12.552Z,13.77
2022-08-23T21:07:41.858Z,19.13
2022-08-23T21:10:12.651Z,20.52
2022-08-23T21:12:42.059Z,19.92
2022-08-23T21:15:12.713Z,21.13
2022-08-23T21:17:41.802Z,14.70
2022-08-23T21:20:11.993Z,22.45
2022-08-23T21:22:41.089Z,22.00
2022-08-23T21:25:12.359Z,16.33
2022-08-23T21:27:42.189Z,15.18
2022-08-23T21:30:12.471Z,23.00
2022-08-23T21:32:41.612Z,17.17
2022-08-23T21:35:11.828Z,17.40
2022-08-23T21:37:41.084Z,13.60
2022-08-23T21:40:13.640Z,21.30
2022-08-23T21:42:43.580Z,17.20
2022-08-23T21:45:13.036Z,22.75
2022-08-23T21:47:43.000Z,18.50
2022-08-23T21:50:12.611Z,26.02
2022-08-23T21:52:42.000Z,21.63
2022-08-23T21:55:13.107Z,16.98
2022-08-23T21:57:42.862Z,20.50
2022-08-23T22:00:15.102Z,26.23
2022-08-23T22:02:44.469Z,15.85
2022-08-23T22:05:14.271Z,23.23
2022-08-23T22:07:43.637Z,14.77
2022-08-23T22:10:14.690Z,15.57
2022-08-23T22:12:43.932Z,12.52
2022-08-23T22:15:15.437Z,26.40
2022-08-23T22:17:44.646Z,21.13
2022-08-23T22:20:14.426Z,25.13
2022-08-23T22:22:43.849Z,15.00
2022-08-23T22:25:14.895Z,16.15
2022-08-23T22:27:44.797Z,17.33
2022-08-23T22:30:14.557Z,23.20
2022-08-23T22:32:44.089Z,22.10
2022-08-23T22:35:14.374Z,17.20
2022-08-23T22:38:03.555Z,21.17
2022-08-23T22:40:36.495Z,14.93
2022-08-23T22:43:05.423Z,18.90
2022-08-23T22:45:34.747Z,14.70
2022-08-23T22:48:04.293Z,17.02
2022-08-23T22:50:33.450Z,12.35
2022-08-23T22:53:02.403Z,15.32
2022-08-23T22:55:31.785Z,19.88
2022-08-23T22:58:02.880Z,15.25
2022-08-23T23:00:32.313Z,16.83
2022-08-23T23:03:01.380Z,15.75
2022-08-23T23:05:35.411Z,16.00
2022-08-23T23:08:22.557Z,15.32
2022-08-23T23:10:52.050Z,12.95
2022-08-23T23:13:23.774Z,15.73
2022-08-23T23:15:54.316Z,15.68
2022-08-23T23:18:24.714Z,22.10
2022-08-23T23:20:53.035Z,18.13
2022-08-23T23:23:23.423Z,22.63
2022-08-23T23:25:52.896Z,29.73
2022-08-23T23:28:23.546Z,18.73
2022-08-23T23:30:54.844Z,25.80
2022-08-23T23:33:24.757Z,13.90
2022-08-23T23:35:53.860Z,23.38
2022-08-23T23:38:23.112Z,24.15
2022-08-23T23:40:52.573Z,22.25
2022-08-23T23:43:23.031Z,25.75
2022-08-23T23:45:51.977Z,22.90
2022-08-23T23:48:21.290Z,19.48
2022-08-23T23:50:50.375Z,21.77
2022-08-23T23:53:20.303Z,21.05
2022-08-23T23:55:49.840Z,19.50
2022-08-23T23:58:18.757Z,25.27
